createdAt,value
2018-12-09T00:00:22.741Z,7.70
2018-12-09T00:02:51.439Z,7.60
2018-12-09T00:05:20.251Z,7.60
2018-12-09T00:07:49.271Z,7.60
2018-12-09T00:10:17.980Z,7.50
2018-12-09T00:12:46.680Z,7.40
2018-12-09T00:15:15.373Z,7.30
2018-12-09T00:17:43.767Z,7.30
2018-12-09T00:20:13.423Z,7.20
2018-12-09T00:22:42.269Z,7.20
2018-12-09T00:25:10.798Z,7.10
2018-12-09T00:27:39.030Z,7.00
2018-12-09T00:30:07.581Z,7.00
2018-12-09T00:32:36.990Z,7.00
2018-12-09T00:35:05.844Z,7.00
2018-12-09T00:37:34.596Z,6.90
2018-12-09T00:40:03.250Z,6.90
2018-12-09T00:42:31.478Z,6.90
2018-12-09T00:45:00.177Z,6.80
2018-12-09T00:47:29.266Z,6.80
2018-12-09T00:49:57.946Z,6.70
2018-12-09T00:52:27.416Z,6.70
2018-12-09T00:54:56.256Z,6.80
2018-12-09T00:57:25.234Z,6.70
2018-12-09T00:59:53.920Z,6.80
2018-12-09T01:02:22.167Z,6.80
2018-12-09T01:04:50.781Z,6.90
2018-12-09T01:07:19.469Z,7.00
2018-12-09T01:09:48.672Z,7.10
2018-12-09T01:12:17.883Z,7.20
2018-12-09T01:14:47.397Z,7.30
2018-12-09T01:17:16.213Z,7.30
2018-12-09T01:19:44.965Z,7.30
2018-12-09T01:22:14.187Z,7.40
2018-12-09T01:24:42.642Z,7.50
2018-12-09T01:27:11.150Z,7.50
2018-12-09T01:29:39.909Z,7.50
2018-12-09T01:32:08.612Z,7.50
2018-12-09T01:34:37.050Z,7.50
2018-12-09T01:37:05.616Z,7.60
2018-12-09T01:39:34.300Z,7.60
2018-12-09T01:42:02.985Z,7.70
2018-12-09T01:44:32.253Z,7.70
2018-12-09T01:47:01.050Z,7.60
2018-12-09T01:49:29.737Z,7.60
2018-12-09T01:51:59.209Z,7.70
2018-12-09T01:54:27.793Z,7.60
2018-12-09T01:56:56.594Z,7.60
2018-12-09T01:59:24.866Z,7.50
2018-12-09T02:01:54.042Z,7.50
2018-12-09T02:04:22.728Z,7.50
2018-12-09T02:06:51.471Z,7.50
2018-12-09T02:09:20.236Z,7.50
2018-12-09T02:11:48.477Z,7.40
2018-12-09T02:14:17.749Z,7.40
2018-12-09T02:16:47.197Z,7.40
2018-12-09T02:19:18.341Z,7.40
2018-12-09T02:21:47.048Z,7.40
2018-12-09T02:24:16.664Z,7.40
2018-12-09T02:26:44.900Z,7.40
2018-12-09T02:29:13.309Z,7.40
2018-12-09T02:31:42.089Z,7.50
2018-12-09T02:34:10.498Z,7.50
2018-12-09T02:36:39.123Z,7.50
2018-12-09T02:39:09.040Z,7.50
2018-12-09T02:41:39.153Z,7.50
2018-12-09T02:44:07.828Z,7.50
2018-12-09T02:46:37.767Z,7.40
2018-12-09T02:49:06.380Z,7.40
2018-12-09T02:51:35.174Z,7.40
2018-12-09T02:54:04.538Z,7.40
2018-12-09T02:56:33.842Z,7.30
2018-12-09T02:59:03.084Z,7.40
2018-12-09T03:01:32.242Z,7.40
2018-12-09T03:04:00.753Z,7.30
2018-12-09T03:06:29.887Z,7.40
2018-12-09T03:08:58.168Z,7.60
2018-12-09T03:11:27.594Z,7.60
2018-12-09T03:13:55.810Z,7.50
2018-12-09T03:16:24.442Z,7.50
2018-12-09T03:18:53.434Z,7.60
2018-12-09T03:21:21.838Z,7.50
2018-12-09T03:23:50.249Z,7.50
2018-12-09T03:26:18.903Z,7.50
2018-12-09T03:28:47.182Z,7.50
2018-12-09T03:31:15.490Z,7.40
2018-12-09T03:33:44.217Z,7.30
2018-12-09T03:36:12.959Z,7.30
2018-12-09T03:38:41.457Z,7.30
2018-12-09T03:41:10.462Z,7.30
2018-12-09T03:43:39.242Z,7.20
2018-12-09T03:46:07.909Z,7.20
2018-12-09T03:48:36.185Z,7.30
2018-12-09T03:51:04.456Z,7.20
2018-12-09T03:53:34.020Z,7.00
2018-12-09T03:56:03.469Z,6.80
2018-12-09T03:58:31.701Z,6.70
2018-12-09T04:00:59.969Z,6.50
2018-12-09T04:03:29.341Z,6.30
2018-12-09T04:05:58.107Z,6.00
2018-12-09T04:08:26.513Z,5.90
2018-12-09T04:10:55.314Z,5.80
2018-12-09T04:13:23.703Z,5.70
2018-12-09T04:15:52.247Z,5.60
2018-12-09T04:18:21.487Z,5.60
2018-12-09T04:20:51.237Z,5.50
2018-12-09T04:23:20.244Z,5.40
2018-12-09T04:25:50.056Z,5.40
2018-12-09T04:28:19.961Z,5.40
2018-12-09T04:30:48.680Z,5.30
2018-12-09T04:33:17.241Z,5.30
2018-12-09T04:35:45.464Z,5.20
2018-12-09T04:38:13.938Z,5.20
2018-12-09T04:40:43.198Z,5.20
2018-12-09T04:43:11.600Z,5.10
2018-12-09T04:45:40.084Z,5.10
2018-12-09T04:48:08.610Z,5.10
2018-12-09T04:50:37.564Z,5.10
2018-12-09T04:53:05.869Z,5.00
2018-12-09T04:55:34.532Z,5.00
2018-12-09T04:58:03.861Z,5.00
2018-12-09T05:00:44.550Z,5.00
2018-12-09T05:03:13.077Z,5.00
2018-12-09T05:05:41.472Z,5.00
2018-12-09T05:08:10.069Z,5.00
2018-12-09T05:10:39.149Z,5.00
2018-12-09T05:13:07.494Z,4.90
2018-12-09T05:15:35.921Z,4.90
2018-12-09T05:18:04.670Z,4.90
2018-12-09T05:20:33.271Z,4.90
2018-12-09T05:23:02.154Z,4.90
2018-12-09T05:25:30.891Z,4.90
2018-12-09T05:27:59.724Z,4.90
2018-12-09T05:30:28.238Z,4.80
2018-12-09T05:32:56.862Z,4.80
2018-12-09T05:35:25.077Z,4.80
2018-12-09T05:37:53.957Z,4.70
2018-12-09T05:40:22.613Z,4.70
2018-12-09T05:42:50.845Z,4.80
2018-12-09T05:45:19.648Z,4.90
2018-12-09T05:47:48.273Z,4.90
2018-12-09T05:50:16.547Z,5.00
2018-12-09T05:52:45.112Z,5.00
2018-12-09T05:55:14.396Z,5.00
2018-12-09T05:57:44.696Z,5.00
2018-12-09T06:00:13.437Z,5.00
2018-12-09T06:02:54.553Z,5.00
2018-12-09T06:05:26.183Z,5.10
2018-12-09T06:07:54.784Z,5.20
2018-12-09T06:10:23.490Z,5.20
2018-12-09T06:12:51.961Z,5.30
2018-12-09T06:15:20.626Z,5.30
2018-12-09T06:17:49.783Z,5.40
2018-12-09T06:20:18.009Z,5.40
2018-12-09T06:22:46.573Z,5.50
2018-12-09T06:25:15.846Z,5.60
2018-12-09T06:27:44.397Z,5.50
2018-12-09T06:30:13.427Z,5.40
2018-12-09T06:32:42.064Z,5.30
2018-12-09T06:35:10.389Z,5.30
2018-12-09T06:37:38.953Z,5.20
2018-12-09T06:40:07.678Z,5.20
2018-12-09T06:42:36.601Z,5.20
2018-12-09T06:45:06.921Z,5.20
2018-12-09T06:47:35.582Z,5.10
2018-12-09T06:50:06.232Z,5.10
2018-12-09T06:52:34.704Z,5.10
2018-12-09T06:55:04.025Z,5.20
2018-12-09T06:57:32.221Z,5.30
2018-12-09T07:00:00.759Z,5.40
2018-12-09T07:02:29.073Z,5.40
2018-12-09T07:04:57.424Z,5.50
2018-12-09T07:07:27.617Z,5.50
2018-12-09T07:09:56.220Z,5.60
2018-12-09T07:12:25.447Z,5.60
2018-12-09T07:14:53.727Z,5.70
2018-12-09T07:17:22.566Z,5.70
2018-12-09T07:19:50.735Z,5.70
2018-12-09T07:22:19.301Z,5.80
2018-12-09T07:24:47.748Z,5.70
2018-12-09T07:27:16.017Z,5.80
2018-12-09T07:29:44.939Z,5.80
2018-12-09T07:32:13.148Z,5.80
2018-12-09T07:34:41.525Z,5.80
2018-12-09T07:37:09.977Z,5.80
2018-12-09T07:39:38.222Z,6.00
2018-12-09T07:42:06.809Z,6.10
2018-12-09T07:44:35.193Z,6.10
2018-12-09T07:47:03.473Z,6.20
2018-12-09T07:49:31.790Z,6.20
2018-12-09T07:52:00.133Z,6.10
2018-12-09T07:54:29.027Z,6.10
2018-12-09T07:56:57.765Z,6.10
2018-12-09T07:59:26.240Z,6.20
2018-12-09T08:01:55.046Z,6.20
2018-12-09T08:04:23.312Z,6.20
2018-12-09T08:06:51.500Z,6.20
2018-12-09T08:09:19.793Z,6.30
2018-12-09T08:11:48.169Z,6.30
2018-12-09T08:14:16.385Z,6.30
2018-12-09T08:16:44.841Z,6.30
2018-12-09T08:19:13.183Z,6.40
2018-12-09T08:21:41.508Z,6.40
2018-12-09T08:24:09.702Z,6.40
2018-12-09T08:26:38.175Z,6.40
2018-12-09T08:29:06.541Z,6.50
2018-12-09T08:31:34.738Z,6.50
2018-12-09T08:34:03.705Z,6.50
2018-12-09T08:36:31.953Z,6.60
2018-12-09T08:39:00.195Z,6.60
2018-12-09T08:41:28.498Z,6.60
2018-12-09T08:43:58.099Z,6.60
2018-12-09T08:46:27.525Z,6.60
2018-12-09T08:48:56.972Z,6.60
2018-12-09T08:51:27.135Z,6.50
2018-12-09T08:53:55.317Z,6.50
2018-12-09T08:56:23.565Z,6.60
2018-12-09T08:58:52.350Z,6.60
2018-12-09T09:01:20.761Z,6.60
2018-12-09T09:03:48.998Z,6.60
2018-12-09T09:06:17.950Z,6.60
2018-12-09T09:08:46.241Z,6.60
2018-12-09T09:11:14.697Z,6.60
2018-12-09T09:13:42.869Z,6.70
2018-12-09T09:16:11.175Z,6.70
2018-12-09T09:18:39.358Z,6.70
2018-12-09T09:21:07.677Z,6.60
2018-12-09T09:23:36.116Z,6.50
2018-12-09T09:26:04.370Z,6.40
2018-12-09T09:28:32.749Z,6.40
2018-12-09T09:31:01.147Z,6.40
2018-12-09T09:33:29.504Z,6.40
2018-12-09T09:35:57.894Z,6.40
2018-12-09T09:38:26.181Z,6.40
2018-12-09T09:40:54.577Z,6.40
2018-12-09T09:43:22.858Z,6.40
2018-12-09T09:45:51.348Z,6.40
2018-12-09T09:48:19.529Z,6.40
2018-12-09T09:50:47.849Z,6.30
2018-12-09T09:53:16.214Z,6.30
2018-12-09T09:55:44.864Z,6.20
2018-12-09T09:58:13.246Z,6.30
2018-12-09T10:00:41.460Z,6.30
2018-12-09T10:03:09.851Z,6.30
2018-12-09T10:05:38.301Z,6.30
2018-12-09T10:08:06.641Z,6.20
2018-12-09T10:10:34.981Z,6.20
2018-12-09T10:13:03.341Z,6.20
2018-12-09T10:15:31.618Z,6.10
2018-12-09T10:17:59.841Z,6.10
2018-12-09T10:20:28.025Z,6.00
2018-12-09T10:22:56.225Z,6.00
2018-12-09T10:25:24.895Z,5.90
2018-12-09T10:27:54.101Z,5.90
2018-12-09T10:30:24.439Z,5.80
2018-12-09T10:32:53.129Z,5.70
2018-12-09T10:35:21.633Z,5.70
2018-12-09T10:38:21.099Z,5.70
2018-12-09T10:40:49.522Z,5.70
2018-12-09T10:43:17.797Z,5.70
2018-12-09T10:45:45.973Z,5.70
2018-12-09T10:48:14.265Z,5.80
2018-12-09T10:50:42.502Z,5.80
2018-12-09T10:53:12.938Z,5.90
2018-12-09T10:55:41.357Z,6.10
2018-12-09T10:58:09.894Z,6.20
2018-12-09T11:00:43.477Z,6.30
2018-12-09T11:03:11.684Z,6.30
2018-12-09T11:05:40.151Z,6.40
2018-12-09T11:08:08.430Z,6.50
2018-12-09T11:10:36.797Z,6.50
2018-12-09T11:13:05.187Z,6.50
2018-12-09T11:15:33.466Z,6.50
2018-12-09T11:18:01.694Z,6.50
2018-12-09T11:20:29.923Z,6.50
2018-12-09T11:22:58.210Z,6.40
2018-12-09T11:25:26.609Z,6.40
2018-12-09T11:27:55.074Z,6.30
2018-12-09T11:30:23.565Z,6.20
2018-12-09T11:32:51.857Z,6.20
2018-12-09T11:35:20.062Z,6.30
2018-12-09T11:37:48.671Z,6.30
2018-12-09T11:40:17.289Z,6.30
2018-12-09T11:42:45.673Z,6.30
2018-12-09T11:45:14.147Z,6.30
2018-12-09T11:47:42.586Z,6.20
2018-12-09T11:50:10.947Z,6.20
2018-12-09T11:52:39.313Z,6.10
2018-12-09T11:55:07.695Z,6.00
2018-12-09T11:57:36.150Z,5.90
2018-12-09T12:00:07.762Z,5.90
2018-12-09T12:02:35.970Z,6.00
2018-12-09T12:05:05.088Z,6.10
2018-12-09T12:07:33.354Z,6.10
2018-12-09T12:10:01.569Z,6.00
2018-12-09T12:12:29.925Z,6.00
2018-12-09T12:14:58.118Z,6.10
2018-12-09T12:17:26.313Z,6.10
2018-12-09T12:19:54.913Z,6.30
2018-12-09T12:22:23.674Z,6.30
2018-12-09T12:24:52.476Z,6.30
2018-12-09T12:27:22.351Z,6.20
2018-12-09T12:29:50.885Z,6.10
2018-12-09T12:32:19.470Z,6.00
2018-12-09T12:34:48.194Z,6.00
2018-12-09T12:37:17.135Z,5.90
2018-12-09T12:39:45.833Z,6.00
2018-12-09T12:42:14.515Z,5.90
2018-12-09T12:44:43.357Z,5.90
2018-12-09T12:47:12.502Z,5.90
2018-12-09T12:49:41.388Z,5.80
2018-12-09T12:52:11.122Z,5.70
2018-12-09T12:54:39.518Z,5.60
2018-12-09T12:57:07.778Z,5.60
2018-12-09T12:59:36.451Z,5.40
2018-12-09T13:02:05.633Z,5.40
2018-12-09T13:04:34.488Z,5.40
2018-12-09T13:07:03.434Z,5.30
2018-12-09T13:09:33.013Z,5.30
2018-12-09T13:12:04.748Z,5.30
2018-12-09T13:14:33.643Z,5.30
2018-12-09T13:17:02.515Z,5.30
2018-12-09T13:19:31.980Z,5.30
2018-12-09T13:22:00.608Z,5.20
2018-12-09T13:24:30.280Z,5.20
2018-12-09T13:26:59.369Z,5.20
2018-12-09T13:29:27.932Z,5.20
2018-12-09T13:31:56.840Z,5.20
2018-12-09T13:34:25.409Z,5.20
2018-12-09T13:36:53.623Z,5.30
2018-12-09T13:39:21.992Z,5.40
2018-12-09T13:41:50.281Z,5.40
2018-12-09T13:44:18.659Z,5.40
2018-12-09T13:46:48.363Z,5.40
2018-12-09T13:49:17.561Z,5.40
2018-12-09T13:51:47.079Z,5.40
2018-12-09T13:54:16.042Z,5.40
2018-12-09T13:56:44.779Z,5.40
2018-12-09T13:59:13.027Z,5.40
2018-12-09T14:01:41.325Z,5.40
2018-12-09T14:04:09.555Z,5.40
2018-12-09T14:06:37.939Z,5.40
2018-12-09T14:09:07.702Z,5.40
2018-12-09T14:11:36.321Z,5.40
2018-12-09T14:14:04.788Z,5.30
2018-12-09T14:16:33.156Z,5.30
2018-12-09T14:19:01.689Z,5.20
2018-12-09T14:21:30.090Z,5.20
2018-12-09T14:23:58.411Z,5.20
2018-12-09T14:26:26.705Z,5.20
2018-12-09T14:28:57.149Z,5.20
2018-12-09T14:31:26.851Z,5.10
2018-12-09T14:33:55.062Z,5.10
2018-12-09T14:36:23.529Z,5.10
2018-12-09T14:38:51.874Z,5.10
2018-12-09T14:41:20.185Z,5.10
2018-12-09T14:43:48.880Z,5.10
2018-12-09T14:46:17.089Z,5.10
2018-12-09T14:48:45.269Z,5.10
2018-12-09T14:51:13.485Z,5.10
2018-12-09T14:53:41.790Z,5.10
2018-12-09T14:56:10.075Z,5.10
2018-12-09T14:58:38.449Z,5.10
2018-12-09T15:01:07.182Z,5.10
2018-12-09T15:03:35.401Z,5.10
2018-12-09T15:06:04.095Z,5.10
2018-12-09T15:08:32.317Z,5.10
2018-12-09T15:11:00.985Z,5.10
2018-12-09T15:13:29.285Z,5.00
2018-12-09T15:15:57.818Z,5.00
2018-12-09T15:18:26.144Z,5.00
2018-12-09T15:20:54.546Z,5.00
2018-12-09T15:23:23.081Z,4.90
2018-12-09T15:25:51.713Z,4.90
2018-12-09T15:28:20.013Z,4.90
2018-12-09T15:30:48.239Z,4.90
2018-12-09T15:33:16.490Z,4.90
2018-12-09T15:35:44.824Z,4.90
2018-12-09T15:38:13.177Z,4.90
2018-12-09T15:40:41.660Z,4.90
2018-12-09T15:43:09.993Z,4.90
2018-12-09T15:45:38.289Z,4.90
2018-12-09T15:48:07.517Z,5.00
2018-12-09T15:50:36.422Z,5.00
2018-12-09T15:53:05.057Z,5.00
2018-12-09T15:55:33.815Z,4.90
2018-12-09T15:58:02.474Z,5.00
2018-12-09T16:00:35.125Z,5.00
2018-12-09T16:03:04.266Z,5.00
2018-12-09T16:05:33.453Z,5.10
2018-12-09T16:08:01.864Z,5.10
2018-12-09T16:10:31.588Z,5.10
2018-12-09T16:12:59.943Z,5.10
2018-12-09T16:15:28.454Z,5.20
2018-12-09T16:17:57.138Z,5.30
2018-12-09T16:20:25.733Z,5.30
2018-12-09T16:22:54.394Z,5.40
2018-12-09T16:25:22.625Z,5.50
2018-12-09T16:27:51.881Z,5.50
2018-12-09T16:30:22.099Z,5.60
2018-12-09T16:32:51.102Z,5.60
2018-12-09T16:35:20.661Z,5.60
2018-12-09T16:37:49.403Z,5.70
2018-12-09T16:40:17.723Z,5.60
2018-12-09T16:42:47.277Z,5.60
2018-12-09T16:45:15.619Z,5.60
2018-12-09T16:47:44.127Z,5.60
2018-12-09T16:50:12.689Z,5.60
2018-12-09T16:52:42.037Z,5.50
2018-12-09T16:55:10.304Z,5.50
2018-12-09T16:57:38.545Z,5.50
2018-12-09T17:00:07.373Z,5.50
2018-12-09T17:02:35.962Z,5.50
2018-12-09T17:05:05.410Z,5.50
2018-12-09T17:07:41.897Z,5.50
2018-12-09T17:10:04.869Z,5.50
2018-12-09T17:12:33.189Z,5.50
2018-12-09T17:15:02.023Z,5.50
2018-12-09T17:17:30.868Z,5.50
2018-12-09T17:20:06.244Z,5.50
2018-12-09T17:22:30.226Z,5.40
2018-12-09T17:24:58.529Z,5.50
2018-12-09T17:27:26.943Z,5.50
2018-12-09T17:29:55.184Z,5.50
2018-12-09T17:32:23.770Z,5.50
2018-12-09T17:34:53.127Z,5.50
2018-12-09T17:37:21.582Z,5.50
2018-12-09T17:39:50.953Z,5.50
2018-12-09T17:42:19.355Z,5.50
2018-12-09T17:44:47.858Z,5.50
2018-12-09T17:47:16.349Z,5.50
2018-12-09T17:49:44.697Z,5.60
2018-12-09T17:52:12.973Z,5.60
2018-12-09T17:54:41.237Z,5.60
2018-12-09T17:57:09.476Z,5.60
2018-12-09T17:59:37.722Z,5.60
2018-12-09T18:02:06.314Z,5.60
2018-12-09T18:04:34.951Z,5.60
2018-12-09T18:07:04.617Z,5.60
2018-12-09T18:09:33.021Z,5.60
2018-12-09T18:12:02.024Z,5.60
2018-12-09T18:14:30.497Z,5.60
2018-12-09T18:16:59.002Z,5.60
2018-12-09T18:19:27.313Z,5.70
2018-12-09T18:21:56.054Z,5.70
2018-12-09T18:24:25.098Z,5.70
2018-12-09T18:26:54.065Z,5.70
2018-12-09T18:29:22.713Z,5.70
2018-12-09T18:31:53.098Z,5.70
2018-12-09T18:34:22.697Z,5.70
2018-12-09T18:36:51.808Z,5.70
2018-12-09T18:39:21.822Z,5.70
2018-12-09T18:41:50.357Z,5.70
2018-12-09T18:44:18.608Z,5.70
2018-12-09T18:46:47.370Z,5.60
2018-12-09T18:49:17.002Z,5.60
2018-12-09T18:51:47.118Z,5.60
2018-12-09T18:54:16.914Z,5.60
2018-12-09T18:56:46.358Z,5.60
2018-12-09T18:59:15.196Z,5.60
2018-12-09T19:01:43.845Z,5.60
2018-12-09T19:04:12.446Z,5.60
2018-12-09T19:06:41.349Z,5.60
2018-12-09T19:09:09.846Z,5.60
2018-12-09T19:11:38.490Z,5.60
2018-12-09T19:14:07.426Z,5.60
2018-12-09T19:16:35.642Z,5.60
2018-12-09T19:19:04.227Z,5.60
2018-12-09T19:21:33.477Z,5.60
2018-12-09T19:24:02.041Z,5.60
2018-12-09T19:26:30.949Z,5.60
2018-12-09T19:29:00.244Z,5.60
2018-12-09T19:31:29.003Z,5.60
2018-12-09T19:33:57.265Z,5.50
2018-12-09T19:36:26.673Z,5.50
2018-12-09T19:38:55.535Z,5.50
2018-12-09T19:41:23.911Z,5.50
2018-12-09T19:43:54.137Z,5.50
2018-12-09T19:46:22.659Z,5.50
2018-12-09T19:48:51.020Z,5.60
2018-12-09T19:51:20.541Z,5.60
2018-12-09T19:53:49.931Z,5.50
2018-12-09T19:56:18.920Z,5.60
2018-12-09T19:58:48.150Z,5.60
2018-12-09T20:01:17.061Z,5.60
2018-12-09T20:03:45.495Z,5.60
2018-12-09T20:06:15.029Z,5.60
2018-12-09T20:08:43.429Z,5.60
2018-12-09T20:11:12.737Z,5.60
2018-12-09T20:13:41.452Z,5.60
2018-12-09T20:16:10.261Z,5.50
2018-12-09T20:18:38.608Z,5.60
2018-12-09T20:21:07.102Z,5.50
2018-12-09T20:23:35.774Z,5.60
2018-12-09T20:26:04.291Z,5.50
2018-12-09T20:28:32.885Z,5.60
2018-12-09T20:31:02.026Z,5.60
2018-12-09T20:33:30.546Z,5.50
2018-12-09T20:35:58.816Z,5.60
2018-12-09T20:38:27.771Z,5.50
2018-12-09T20:40:56.452Z,5.50
2018-12-09T20:43:24.869Z,5.50
2018-12-09T20:45:53.953Z,5.40
2018-12-09T20:48:22.545Z,5.30
2018-12-09T20:50:51.125Z,5.20
2018-12-09T20:53:20.984Z,5.10
2018-12-09T20:55:49.455Z,4.90
2018-12-09T20:58:17.696Z,4.80
2018-12-09T21:00:48.100Z,4.70
2018-12-09T21:03:17.704Z,4.60
2018-12-09T21:05:47.688Z,4.50
2018-12-09T21:08:16.620Z,4.40
2018-12-09T21:10:46.109Z,4.50
2018-12-09T21:13:15.701Z,4.50
2018-12-09T21:15:44.477Z,4.50
2018-12-09T21:18:13.302Z,4.50
2018-12-09T21:20:41.529Z,4.50
2018-12-09T21:23:09.854Z,4.50
2018-12-09T21:25:39.149Z,4.50
2018-12-09T21:28:07.733Z,4.60
2018-12-09T21:30:36.550Z,4.60
2018-12-09T21:33:05.217Z,4.60
2018-12-09T21:35:35.093Z,4.70
2018-12-09T21:38:04.657Z,4.70
2018-12-09T21:40:33.356Z,4.70
2018-12-09T21:43:02.030Z,4.70
2018-12-09T21:45:30.818Z,4.70
2018-12-09T21:47:59.297Z,4.80
2018-12-09T21:50:28.743Z,4.80
2018-12-09T21:52:58.374Z,4.80
2018-12-09T21:55:27.008Z,4.80
2018-12-09T21:57:55.785Z,4.80
2018-12-09T22:00:24.270Z,4.90
2018-12-09T22:02:53.065Z,4.90
2018-12-09T22:05:22.036Z,4.90
2018-12-09T22:07:50.575Z,4.90
2018-12-09T22:10:19.342Z,4.90
2018-12-09T22:12:48.313Z,4.90
2018-12-09T22:15:17.133Z,5.00
2018-12-09T22:17:45.805Z,4.90
2018-12-09T22:20:14.589Z,5.00
2018-12-09T22:22:43.084Z,5.00
2018-12-09T22:25:12.705Z,4.90
2018-12-09T22:27:40.987Z,4.90
2018-12-09T22:30:09.840Z,4.80
2018-12-09T22:32:38.653Z,4.80
2018-12-09T22:35:07.400Z,4.70
2018-12-09T22:37:35.823Z,4.70
2018-12-09T22:40:05.200Z,4.60
2018-12-09T22:42:33.990Z,4.60
2018-12-09T22:45:03.224Z,4.50
2018-12-09T22:47:32.408Z,4.50
2018-12-09T22:50:01.477Z,4.60
2018-12-09T22:52:31.061Z,4.60
2018-12-09T22:54:59.568Z,4.60
2018-12-09T22:57:28.722Z,4.60
2018-12-09T22:59:57.230Z,4.60
2018-12-09T23:03:04.395Z,4.60
2018-12-09T23:05:32.787Z,4.60
2018-12-09T23:08:01.854Z,4.50
2018-12-09T23:10:30.120Z,4.40
2018-12-09T23:12:59.596Z,4.40
2018-12-09T23:15:28.185Z,4.40
2018-12-09T23:17:56.922Z,4.30
2018-12-09T23:20:26.216Z,4.30
2018-12-09T23:22:54.461Z,4.30
2018-12-09T23:25:22.700Z,4.40
2018-12-09T23:27:51.026Z,4.40
2018-12-09T23:30:19.786Z,4.40
2018-12-09T23:32:48.613Z,4.30
2018-12-09T23:35:17.056Z,4.40
2018-12-09T23:37:45.861Z,4.30
2018-12-09T23:40:14.629Z,4.30
2018-12-09T23:42:43.317Z,4.30
2018-12-09T23:45:11.834Z,4.30
2018-12-09T23:47:41.219Z,4.30
2018-12-09T23:50:10.574Z,4.30
2018-12-09T23:52:39.660Z,4.30
2018-12-09T23:55:09.482Z,4.20
2018-12-09T23:57:39.292Z,4.20
